Hovedside
METAR-TAF:

METAR-TAF

Lufthavner :

Bodø lufthavn

Bodø, Norge

breddegrad: 67-16N, lengdegrad: 014-22E, høyde over havet: 1 m

Gjeldene værobservasjon

Denne rapporten ble laget for 20 minutter siden, klokken 04:50 UTC
Vind 14 kt fra Øst-sørøst
Temperatur 10°C
Luftfuktighet 53%
Trykk 1021 hPa
Sikt 10 km eller mer
ingen skyer under 1500 m og ingen bygeskyer

METAR: ENBO 250450Z 11014KT CAVOK 10/01 Q1021 NOSIG

Tid: 07:10 (05:10 UTC)

Varsel

Varsel gyldig fra 25. klokken 00 UTC til 25. klokken 24 UTC
Vind 12 kt fra Øst
Sikt 10 km eller mer
ingen skyer under 1500 m og ingen bygeskyer

TAF: ENBO 2500/2524 09012KT CAVOK

Værobservasjoner og værvarsel for over 4000 flyplasser (METAR- og TAF-rapporter).

Tilgjengelige stasjoner er representert av de røde og gule prikkene på kartet.

Hold musepekeren over prikken for å se navnet på stasjonen.

Klikk så for å se værobservasjoner og -varsler.

For å forandre kartet kan du klikke på den grønne knappen med svart kryss for å zoome inn, på den grønne knappen med strek for å zoome ut, eller på de grønne pilene for å se tilstøtende kart.


METAR-TAF: